Terminal Aerodrome Forecast
Issued by NWS Charleston, WV

Current Version | Previous Version | Graphics & Text | Print | Product List | Glossary On
Versions: 1 2 3 4 5 6 7 8 9 10 11 12 13 14 15 16 17 18 19 20 21 22
000
FTUS41 KRLX 221721
TAFPKB
TAF
KPKB 221721Z 2218/2318 21008G15KT P6SM SCT035
     FM221900 23010G15KT P6SM SCT045
     FM222200 27008KT P6SM SCT035
     FM222300 31007KT P6SM SCT030
     FM230100 34005KT P6SM BKN250=

USA.gov is the U.S. government's official web portal to all federal, state and local government web resources and services.